Time;durP1;ratioP1;P1;durP2;ratioP2;P2;SDS_P1;SDS_P2;PMS_P1;PMS_P2;Temp;Humidity;BMP_temperature;BMP_pressure;BME280_temperature;BME280_humidity;BME280_pressure;Samples;Min_cycle;Max_cycle;Signal;HPM_P1;HPM_P2
2023/08/26 00:01:11;;;;;;;;;;;;;;;21.91;28.70;97885.88;4918765;29;1331;-79
2023/08/26 00:03:37;;;;;;;;;;;;;;;22.05;28.35;97874.13;4903052;29;1338;-79
2023/08/26 00:06:02;;;;;;;;;;;;;;;22.09;28.43;97878.44;4919331;29;934;-78
2023/08/26 00:08:28;;;;;;;;;;;;;;;22.07;28.35;97883.78;4918868;29;1923;-78
2023/08/26 00:10:53;;;;;;;;;;;;;;;22.07;28.24;97882.94;4919078;29;913;-78
2023/08/26 00:13:19;;;;;;;;;;;;;;;22.16;27.99;97885.94;4884566;29;1251;-78
2023/08/26 00:15:45;;;;;;;;;;;;;;;22.27;28.03;97885.63;4899998;29;1012;-78
2023/08/26 00:18:11;;;;;;;;;;;;;;;22.02;28.32;97883.50;4942920;29;1815;-79
2023/08/26 00:20:38;;;;;;;;;;;;;;;21.93;28.86;97883.41;4957172;29;852;-79
2023/08/26 00:23:03;;;;;;;;;;;;;;;22.18;27.93;97882.69;4917704;29;1417;-78
2023/08/26 00:25:29;;;;;;;;;;;;;;;22.14;28.14;97879.94;4919022;29;899;-80
2023/08/26 00:27:55;;;;;;;;;;;;;;;21.89;28.68;97888.38;4918399;29;1907;-79
2023/08/26 00:30:20;;;;;;;;;;;;;;;22.05;28.29;97886.25;4934498;29;1061;-79
2023/08/26 00:32:46;;;;;;;;;;;;;;;22.11;28.26;97880.84;4918809;29;936;-78
2023/08/26 00:35:11;;;;;;;;;;;;;;;22.24;28.02;97881.66;4934550;29;1272;-79
2023/08/26 00:37:37;;;;;;;;;;;;;;;22.18;27.90;97879.84;4918147;29;1413;-78
2023/08/26 00:40:02;;;;;;;;;;;;;;;22.07;28.08;97883.78;4918528;29;1058;-79
2023/08/26 00:42:28;;;;;;;;;;;;;;;22.00;28.38;97883.19;4918506;29;1153;-79
2023/08/26 00:44:53;;;;;;;;;;;;;;;22.17;28.24;97886.72;4932931;29;915;-79
2023/08/26 00:47:19;;;;;;;;;;;;;;;22.20;28.14;97886.63;4937711;29;1898;-79
2023/08/26 00:49:45;;;;;;;;;;;;;;;21.84;28.75;97881.22;4921820;29;1285;-79
2023/08/26 00:52:10;;;;;;;;;;;;;;;22.02;28.03;97880.69;4936982;29;1484;-79
2023/08/26 00:54:36;;;;;;;;;;;;;;;22.18;28.12;97880.63;4934706;28;1173;-78
2023/08/26 00:57:04;;;;;;;;;;;;;;;21.87;28.58;97877.50;4945162;28;1095;-79
2023/08/26 00:59:30;;;;;;;;;;;;;;;21.85;28.57;97879.97;4978155;28;882;-78
2023/08/26 01:01:56;;;;;;;;;;;;;;;21.93;28.61;97880.56;4941343;29;1483;-78
2023/08/26 01:04:21;;;;;;;;;;;;;;;21.98;28.38;97880.81;4941434;29;928;-78
2023/08/26 01:06:47;;;;;;;;;;;;;;;22.08;28.29;97876.84;4941458;29;1068;-79
2023/08/26 01:09:12;;;;;;;;;;;;;;;22.00;28.40;97883.19;4957419;29;1991;-78
2023/08/26 01:11:59;;;;;;;;;;;;;;;21.97;28.52;97872.75;4957498;29;1119;-79
2023/08/26 01:14:24;;;;;;;;;;;;;;;21.82;28.48;97881.69;4957092;29;1341;-78
2023/08/26 01:16:50;;;;;;;;;;;;;;;22.04;28.11;97878.19;4941607;29;1272;-78
2023/08/26 01:19:32;;;;;;;;;;;;;;;22.04;28.31;97879.00;4941232;29;1158;-79
2023/08/26 01:22:00;;;;;;;;;;;;;;;22.08;28.25;97873.22;4941468;29;1176;-78
2023/08/26 01:24:26;;;;;;;;;;;;;;;22.13;27.95;97871.91;4956418;29;1349;-78
2023/08/26 01:26:52;;;;;;;;;;;;;;;22.21;27.97;97876.09;4957468;29;1973;-78
2023/08/26 01:29:18;;;;;;;;;;;;;;;21.90;28.35;97872.97;4957134;29;1077;-78
2023/08/26 01:31:43;;;;;;;;;;;;;;;22.10;28.21;97867.88;4941496;29;1158;-79
2023/08/26 01:34:27;;;;;;;;;;;;;;;21.99;28.17;97865.38;4957567;28;1455;-79
2023/08/26 01:36:53;;;;;;;;;;;;;;;22.06;28.25;97870.03;4944186;28;1216;-78
2023/08/26 01:39:18;;;;;;;;;;;;;;;22.08;27.96;97868.34;4944588;28;1450;-78
2023/08/26 01:41:45;;;;;;;;;;;;;;;22.17;28.02;97881.84;4944458;28;1131;-79
2023/08/26 01:44:11;;;;;;;;;;;;;;;21.99;28.10;97873.09;4944126;28;1187;-79
2023/08/26 01:46:37;;;;;;;;;;;;;;;21.89;28.56;97882.72;4944434;28;1063;-79
2023/08/26 01:49:03;;;;;;;;;;;;;;;22.02;28.18;97875.00;4959801;28;1914;-79
2023/08/26 01:51:29;;;;;;;;;;;;;;;22.07;28.07;97872.44;4901692;29;1283;-80
2023/08/26 01:53:55;;;;;;;;;;;;;;;22.26;27.66;97873.47;4902070;29;830;-78
2023/08/26 01:56:20;;;;;;;;;;;;;;;21.92;28.16;97874.13;4901863;29;1132;-79
2023/08/26 01:58:46;;;;;;;;;;;;;;;22.07;28.19;97874.44;4918131;29;1126;-79
2023/08/26 02:01:11;;;;;;;;;;;;;;;22.01;28.10;97876.25;4902115;29;1182;-80
2023/08/26 02:03:37;;;;;;;;;;;;;;;22.06;28.15;97876.50;4917721;29;1120;-78
2023/08/26 02:06:03;;;;;;;;;;;;;;;22.34;27.49;97876.91;4901497;29;1392;-78
2023/08/26 02:08:28;;;;;;;;;;;;;;;22.20;27.69;97880.97;4864500;29;1907;-79
2023/08/26 02:10:54;;;;;;;;;;;;;;;21.93;28.34;97889.84;4864866;29;1269;-79
2023/08/26 02:13:20;;;;;;;;;;;;;;;21.91;28.29;97874.53;4880087;29;961;-78
2023/08/26 02:15:45;;;;;;;;;;;;;;;21.97;27.96;97878.44;4867785;29;1161;-79
2023/08/26 02:18:11;;;;;;;;;;;;;;;22.09;28.18;97878.44;4867758;29;941;-79
2023/08/26 02:20:39;;;;;;;;;;;;;;;22.32;27.64;97888.66;4867388;29;1328;-79
2023/08/26 02:23:05;;;;;;;;;;;;;;;22.00;28.06;97872.63;4880465;29;1352;-78
2023/08/26 02:25:30;;;;;;;;;;;;;;;21.93;28.28;97877.72;4905389;29;1113;-79
2023/08/26 02:27:56;;;;;;;;;;;;;;;21.99;28.15;97875.94;4920686;29;1910;-78
2023/08/26 02:30:21;;;;;;;;;;;;;;;21.86;28.13;97875.88;4920972;29;1531;-78
2023/08/26 02:32:47;;;;;;;;;;;;;;;21.89;28.29;97874.22;4904987;29;1161;-79
2023/08/26 02:35:12;;;;;;;;;;;;;;;21.72;28.36;97874.28;4905391;29;1366;-79
2023/08/26 02:37:38;;;;;;;;;;;;;;;22.07;27.92;97871.63;4921261;29;1686;-78
2023/08/26 02:40:05;;;;;;;;;;;;;;;22.00;27.91;97875.47;4933718;29;1468;-78
2023/08/26 02:42:32;;;;;;;;;;;;;;;21.87;28.23;97874.66;4944129;29;1114;-78
2023/08/26 02:44:58;;;;;;;;;;;;;;;22.03;28.17;97870.94;4943718;29;1354;-79
2023/08/26 02:47:23;;;;;;;;;;;;;;;21.84;28.26;97870.69;4927951;29;1971;-78
2023/08/26 02:49:49;;;;;;;;;;;;;;;22.07;27.87;97869.59;4943814;29;1147;-79
2023/08/26 02:52:16;;;;;;;;;;;;;;;21.97;28.32;97873.56;4912721;29;1397;-78
2023/08/26 02:54:43;;;;;;;;;;;;;;;22.18;27.86;97874.97;4952114;28;1479;-79
2023/08/26 02:57:08;;;;;;;;;;;;;;;22.04;28.03;97869.69;4946862;28;1288;-79
2023/08/26 02:59:34;;;;;;;;;;;;;;;21.90;28.47;97870.13;4962719;28;1443;-78
2023/08/26 03:02:00;;;;;;;;;;;;;;;22.07;27.87;97865.94;4946678;28;1404;-78
2023/08/26 03:04:26;;;;;;;;;;;;;;;22.19;27.83;97868.03;4946413;28;1038;-79
2023/08/26 03:06:51;;;;;;;;;;;;;;;22.09;27.87;97869.94;4945065;28;1503;-78
2023/08/26 03:09:17;;;;;;;;;;;;;;;22.19;28.00;97873.72;4944933;28;1910;-79
2023/08/26 03:11:42;;;;;;;;;;;;;;;22.12;27.91;97885.25;4961972;28;963;-78
2023/08/26 03:14:08;;;;;;;;;;;;;;;21.92;28.38;97871.28;4961773;28;1244;-78
2023/08/26 03:16:33;;;;;;;;;;;;;;;22.01;28.29;97881.94;4961007;28;1437;-78
2023/08/26 03:18:59;;;;;;;;;;;;;;;22.14;27.84;97887.66;4961764;28;1284;-78
2023/08/26 03:21:24;;;;;;;;;;;;;;;22.19;27.82;97885.06;4961732;28;1358;-78
2023/08/26 03:23:51;;;;;;;;;;;;;;;22.03;28.32;97877.41;4961509;28;1250;-78
2023/08/26 03:26:17;;;;;;;;;;;;;;;21.92;28.25;97876.16;4944653;28;905;-78
2023/08/26 03:28:44;;;;;;;;;;;;;;;22.01;28.25;97891.22;4960982;28;1985;-78
2023/08/26 03:31:10;;;;;;;;;;;;;;;22.05;28.16;97891.13;4977344;28;904;-78
2023/08/26 03:33:42;;;;;;;;;;;;;;;22.01;28.32;97896.09;4946415;28;1130;-79
2023/08/26 03:36:08;;;;;;;;;;;;;;;21.96;28.00;97896.66;4945521;28;1172;-78
2023/08/26 03:38:33;;;;;;;;;;;;;;;22.11;28.06;97895.00;4961012;28;1320;-78
2023/08/26 03:41:01;;;;;;;;;;;;;;;22.14;28.14;97894.13;4961027;28;905;-78
2023/08/26 03:43:27;;;;;;;;;;;;;;;22.10;28.01;97896.22;4960350;28;1512;-78
2023/08/26 03:45:52;;;;;;;;;;;;;;;22.13;27.84;97891.75;4960727;28;1588;-78
2023/08/26 03:48:18;;;;;;;;;;;;;;;22.00;28.17;97900.16;4944987;28;1899;-77
2023/08/26 03:50:54;;;;;;;;;;;;;;;22.28;27.87;97899.34;4961199;28;1172;-78
2023/08/26 03:53:20;;;;;;;;;;;;;;;22.05;28.21;97891.13;4956460;29;1685;-78
2023/08/26 03:55:46;;;;;;;;;;;;;;;21.96;28.14;97899.47;4941963;29;1147;-78
2023/08/26 03:58:11;;;;;;;;;;;;;;;21.99;28.36;97898.59;4941785;28;1200;-78
2023/08/26 04:00:37;;;;;;;;;;;;;;;21.81;28.59;97899.91;4910363;29;1226;-78
2023/08/26 04:03:09;;;;;;;;;;;;;;;21.75;28.67;97907.34;4958506;29;910;-78
2023/08/26 04:05:34;;;;;;;;;;;;;;;21.95;28.51;97909.22;4925804;29;1148;-78
2023/08/26 04:08:00;;;;;;;;;;;;;;;21.89;28.26;97911.03;4941678;29;1907;-78
2023/08/26 04:10:26;;;;;;;;;;;;;;;21.94;28.33;97910.47;4925585;29;1185;-79
2023/08/26 04:12:51;;;;;;;;;;;;;;;22.08;28.27;97907.22;4917679;29;921;-78
2023/08/26 04:15:17;;;;;;;;;;;;;;;21.89;28.66;97916.69;4886789;29;845;-78
2023/08/26 04:17:43;;;;;;;;;;;;;;;22.03;28.43;97921.94;4886436;29;1058;-78
2023/08/26 04:20:09;;;;;;;;;;;;;;;21.93;28.53;97911.72;4869355;29;1204;-78
2023/08/26 04:22:34;;;;;;;;;;;;;;;21.83;28.63;97914.41;4916900;29;1156;-78
2023/08/26 04:25:00;;;;;;;;;;;;;;;21.79;28.87;97912.94;4932769;29;1298;-78
2023/08/26 04:27:25;;;;;;;;;;;;;;;22.09;28.36;97908.81;4900359;29;1915;-78
2023/08/26 04:29:52;;;;;;;;;;;;;;;21.99;28.58;97904.25;4899484;29;1209;-78
2023/08/26 04:32:18;;;;;;;;;;;;;;;22.02;28.56;97914.66;4929647;29;1149;-80
2023/08/26 04:34:44;;;;;;;;;;;;;;;21.79;29.03;97905.22;4916785;29;1267;-76
2023/08/26 04:37:10;;;;;;;;;;;;;;;22.05;28.58;97908.91;4904132;29;1179;-77
2023/08/26 04:39:37;;;;;;;;;;;;;;;22.03;28.69;97904.94;4917244;29;1184;-77
2023/08/26 04:42:03;;;;;;;;;;;;;;;21.99;28.52;97912.75;4917219;29;970;-78
2023/08/26 04:44:30;;;;;;;;;;;;;;;22.03;28.76;97902.13;4952074;29;1203;-78
2023/08/26 04:46:55;;;;;;;;;;;;;;;21.87;29.00;97908.66;4932954;29;1481;-78
2023/08/26 04:49:22;;;;;;;;;;;;;;;21.85;28.96;97914.75;4916647;29;1907;-77
2023/08/26 04:51:51;;;;;;;;;;;;;;;22.04;28.58;97917.88;4916398;29;1284;-77
2023/08/26 04:54:17;;;;;;;;;;;;;;;22.14;28.43;97913.94;4901565;29;1096;-77
2023/08/26 04:56:42;;;;;;;;;;;;;;;22.09;28.79;97918.09;4917160;29;1265;-77
2023/08/26 04:59:08;;;;;;;;;;;;;;;22.16;28.58;97919.94;4917175;29;1416;-77
2023/08/26 05:01:33;;;;;;;;;;;;;;;22.05;28.41;97913.78;4901133;29;1036;-77
2023/08/26 05:03:59;;;;;;;;;;;;;;;22.17;28.66;97915.88;4917129;29;1006;-78
2023/08/26 05:06:24;;;;;;;;;;;;;;;22.03;28.84;97911.41;4911400;29;1320;-77
2023/08/26 05:08:50;;;;;;;;;;;;;;;21.96;28.79;97905.94;4895869;29;1907;-78
2023/08/26 05:11:15;;;;;;;;;;;;;;;21.96;28.71;97905.16;4886503;29;1502;-77
2023/08/26 05:13:41;;;;;;;;;;;;;;;21.90;29.07;97907.75;4928893;29;1313;-78
2023/08/26 05:16:06;;;;;;;;;;;;;;;22.01;28.76;97907.41;4931545;29;981;-77
2023/08/26 05:18:32;;;;;;;;;;;;;;;22.06;28.84;97906.88;4936021;29;905;-78
2023/08/26 05:20:57;;;;;;;;;;;;;;;21.90;28.91;97912.63;4920137;29;1154;-79
2023/08/26 05:23:23;;;;;;;;;;;;;;;21.84;29.23;97910.34;4922184;29;1264;-78
2023/08/26 05:25:49;;;;;;;;;;;;;;;21.92;29.30;97904.47;4955460;29;1192;-78
2023/08/26 05:28:16;;;;;;;;;;;;;;;22.25;28.38;97917.25;4938639;29;1979;-79
2023/08/26 05:30:43;;;;;;;;;;;;;;;21.99;28.72;97909.94;4939090;29;1244;-76
2023/08/26 05:33:08;;;;;;;;;;;;;;;22.18;28.80;97911.81;4955010;29;1156;-78
2023/08/26 05:35:35;;;;;;;;;;;;;;;22.11;28.69;97912.00;4955044;29;1386;-79
2023/08/26 05:38:00;;;;;;;;;;;;;;;21.73;29.44;97920.38;4955127;29;1300;-78
2023/08/26 05:40:28;;;;;;;;;;;;;;;21.85;29.31;97911.13;4954911;28;1191;-78
2023/08/26 05:42:57;;;;;;;;;;;;;;;22.07;28.84;97919.78;4955057;28;1108;-78
2023/08/26 05:45:24;;;;;;;;;;;;;;;22.12;28.71;97918.47;4954776;28;1265;-78
2023/08/26 05:47:50;;;;;;;;;;;;;;;21.90;29.03;97924.75;4955175;29;1981;-78
2023/08/26 05:50:15;;;;;;;;;;;;;;;22.24;28.31;97921.34;4957327;28;1057;-79
2023/08/26 05:52:41;;;;;;;;;;;;;;;21.99;29.06;97915.59;4958725;28;1238;-78
2023/08/26 05:55:08;;;;;;;;;;;;;;;22.27;28.46;97920.41;4958660;29;1081;-79
2023/08/26 05:57:34;;;;;;;;;;;;;;;22.29;28.55;97917.94;4972156;28;1464;-78
2023/08/26 06:00:00;;;;;;;;;;;;;;;21.98;29.19;97928.97;4960087;28;1147;-78
2023/08/26 06:02:26;;;;;;;;;;;;;;;22.12;28.64;97924.94;4960181;29;1328;-78
2023/08/26 06:04:51;;;;;;;;;;;;;;;21.96;29.14;97928.59;4943792;29;1098;-78
2023/08/26 06:07:18;;;;;;;;;;;;;;;22.26;28.87;97933.00;4960407;29;1977;-78
2023/08/26 06:09:45;;;;;;;;;;;;;;;22.01;28.98;97932.91;4959240;29;1316;-78
2023/08/26 06:12:11;;;;;;;;;;;;;;;22.10;29.07;97935.91;4960852;29;1064;-78
2023/08/26 06:14:37;;;;;;;;;;;;;;;21.83;29.31;97930.63;4943809;29;1254;-78
2023/08/26 06:17:03;;;;;;;;;;;;;;;21.95;29.34;97934.72;4959433;29;1244;-79
2023/08/26 06:19:28;;;;;;;;;;;;;;;22.04;29.22;97940.53;4958638;29;1240;-78
2023/08/26 06:21:54;;;;;;;;;;;;;;;21.95;29.45;97937.56;4958451;29;920;-78
2023/08/26 06:24:19;;;;;;;;;;;;;;;21.83;29.65;97945.56;4958580;29;967;-79
2023/08/26 06:26:45;;;;;;;;;;;;;;;21.92;29.49;97944.13;4958425;29;1648;-79
2023/08/26 06:29:14;;;;;;;;;;;;;;;22.00;29.31;97945.50;4958367;29;1907;-78
2023/08/26 06:31:42;;;;;;;;;;;;;;;21.88;29.55;97954.78;4942299;29;1241;-78
2023/08/26 06:34:08;;;;;;;;;;;;;;;22.01;29.19;97952.75;4926579;29;1223;-78
2023/08/26 06:36:34;;;;;;;;;;;;;;;22.15;29.11;97963.72;4958244;29;1105;-78
2023/08/26 06:38:59;;;;;;;;;;;;;;;22.03;29.12;97961.63;4957775;29;948;-78
2023/08/26 06:41:25;;;;;;;;;;;;;;;21.88;29.36;97960.44;4926239;29;1183;-77
2023/08/26 06:43:51;;;;;;;;;;;;;;;22.01;29.34;97964.09;4941957;29;1216;-78
2023/08/26 06:46:21;;;;;;;;;;;;;;;22.04;29.48;97968.88;4957948;29;1227;-78
2023/08/26 06:48:47;;;;;;;;;;;;;;;22.21;29.15;97967.56;4957826;29;1981;-78
2023/08/26 06:51:13;;;;;;;;;;;;;;;22.10;29.36;97978.41;4941899;29;1054;-78
2023/08/26 06:53:38;;;;;;;;;;;;;;;21.96;29.59;97973.94;4958012;29;879;-78
2023/08/26 06:56:05;;;;;;;;;;;;;;;21.79;29.88;97975.25;4958134;29;1170;-78
2023/08/26 06:58:30;;;;;;;;;;;;;;;21.90;29.75;97980.59;4958785;29;1240;-78
2023/08/26 07:00:56;;;;;;;;;;;;;;;22.28;29.21;97973.03;4958670;28;875;-79
2023/08/26 07:03:22;;;;;;;;;;;;;;;22.03;29.51;97981.44;4926016;29;1287;-77
2023/08/26 07:05:47;;;;;;;;;;;;;;;21.85;29.84;97974.22;4958821;29;1119;-78
2023/08/26 07:08:13;;;;;;;;;;;;;;;22.02;29.25;97983.50;4959634;29;1973;-78
2023/08/26 07:10:39;;;;;;;;;;;;;;;22.04;29.30;97985.88;4958535;29;1204;-78
2023/08/26 07:13:04;;;;;;;;;;;;;;;22.15;29.31;97982.75;4942538;29;1002;-78
2023/08/26 07:15:30;;;;;;;;;;;;;;;21.93;29.67;97996.72;4958649;29;1153;-78
2023/08/26 07:17:55;;;;;;;;;;;;;;;22.00;29.33;97985.16;4959607;29;1111;-78
2023/08/26 07:20:21;;;;;;;;;;;;;;;22.08;29.43;97986.56;4958618;29;891;-78
2023/08/26 07:22:46;;;;;;;;;;;;;;;22.26;29.15;97981.19;4900180;29;930;-79
2023/08/26 07:25:12;;;;;;;;;;;;;;;22.23;29.35;97984.94;4900705;29;922;-78
2023/08/26 07:27:38;;;;;;;;;;;;;;;21.92;29.83;97983.81;4884103;29;1899;-79
2023/08/26 07:30:04;;;;;;;;;;;;;;;22.10;29.22;97984.06;4899941;29;955;-78
2023/08/26 07:32:30;;;;;;;;;;;;;;;22.13;29.27;97986.03;4899994;29;1118;-78
2023/08/26 07:34:56;;;;;;;;;;;;;;;22.11;29.41;97980.00;4862225;29;1198;-78
2023/08/26 07:37:21;;;;;;;;;;;;;;;22.16;29.38;97982.28;4862712;29;1104;-78
2023/08/26 07:39:48;;;;;;;;;;;;;;;22.01;29.74;97972.59;4862714;29;995;-78
2023/08/26 07:42:13;;;;;;;;;;;;;;;21.84;29.96;97983.97;4878151;29;1013;-78
2023/08/26 07:44:38;;;;;;;;;;;;;;;21.91;29.92;97973.69;4862476;29;1032;-79
2023/08/26 07:47:04;;;;;;;;;;;;;;;22.16;29.32;97964.50;4862517;29;1250;-78
2023/08/26 07:49:30;;;;;;;;;;;;;;;22.07;29.37;97973.63;4877777;29;1974;-78
2023/08/26 07:51:55;;;;;;;;;;;;;;;22.22;29.30;97980.50;4840531;29;921;-79
2023/08/26 07:54:21;;;;;;;;;;;;;;;22.06;29.42;97978.50;4851264;29;1058;-78
2023/08/26 07:56:46;;;;;;;;;;;;;;;22.19;29.31;97978.56;4881121;29;999;-78
2023/08/26 07:59:12;;;;;;;;;;;;;;;22.22;29.16;97980.50;4880548;29;1156;-78
2023/08/26 08:01:37;;;;;;;;;;;;;;;22.10;29.54;97975.56;4881243;29;1141;-78
2023/08/26 08:04:03;;;;;;;;;;;;;;;22.01;29.91;97981.09;4880699;29;1128;-78
2023/08/26 08:06:28;;;;;;;;;;;;;;;21.94;30.00;97975.63;4880819;29;950;-78
2023/08/26 08:08:54;;;;;;;;;;;;;;;22.22;29.50;97980.50;4880776;29;1915;-78
2023/08/26 08:11:19;;;;;;;;;;;;;;;22.26;29.29;97986.84;4898717;29;983;-78
2023/08/26 08:13:44;;;;;;;;;;;;;;;22.06;29.83;97974.88;4917843;29;993;-78
2023/08/26 08:16:10;;;;;;;;;;;;;;;21.94;29.83;97981.31;4917969;29;939;-78
2023/08/26 08:18:36;;;;;;;;;;;;;;;21.91;29.84;97973.69;4880220;29;958;-78
2023/08/26 08:21:04;;;;;;;;;;;;;;;22.20;29.59;97971.66;4880883;29;909;-78
2023/08/26 08:23:30;;;;;;;;;;;;;;;22.34;29.33;97971.25;4895594;29;1222;-78
2023/08/26 08:25:55;;;;;;;;;;;;;;;21.95;29.81;97974.38;4880268;29;985;-78
2023/08/26 08:28:21;;;;;;;;;;;;;;;22.19;29.49;97978.56;4883428;29;1911;-78
2023/08/26 08:30:46;;;;;;;;;;;;;;;22.36;29.19;97977.25;4918247;29;1104;-78
2023/08/26 08:33:12;;;;;;;;;;;;;;;22.29;29.39;97974.63;4917865;29;985;-78
2023/08/26 08:35:37;;;;;;;;;;;;;;;22.30;29.26;97975.41;4917922;29;1035;-78
2023/08/26 08:38:03;;;;;;;;;;;;;;;22.10;29.75;97976.38;4917898;29;957;-78
2023/08/26 08:40:28;;;;;;;;;;;;;;;22.12;29.67;97975.13;4917735;29;948;-79
2023/08/26 08:42:54;;;;;;;;;;;;;;;22.25;29.41;97978.81;4917531;29;915;-78
2023/08/26 08:45:19;;;;;;;;;;;;;;;22.18;29.68;97979.03;4917746;29;1016;-79
2023/08/26 08:47:46;;;;;;;;;;;;;;;22.33;29.19;97977.38;4917589;29;1906;-78
2023/08/26 08:50:12;;;;;;;;;;;;;;;22.32;29.17;97985.06;4947437;29;1006;-79
2023/08/26 08:52:38;;;;;;;;;;;;;;;21.99;29.73;97978.72;4956985;29;937;-78
2023/08/26 08:55:05;;;;;;;;;;;;;;;21.89;30.24;97970.50;4957651;29;949;-78
2023/08/26 08:57:34;;;;;;;;;;;;;;;21.82;30.25;97980.03;4957663;29;914;-78
2023/08/26 09:00:00;;;;;;;;;;;;;;;22.27;29.60;97977.09;4957738;29;912;-78
2023/08/26 09:02:27;;;;;;;;;;;;;;;22.39;29.03;97974.78;4956283;29;1186;-78
2023/08/26 09:04:52;;;;;;;;;;;;;;;22.37;29.25;97980.88;4956416;29;819;-79
2023/08/26 09:07:18;;;;;;;;;;;;;;;22.34;29.28;97988.25;4956349;29;1965;-78
2023/08/26 09:09:44;;;;;;;;;;;;;;;22.36;29.06;97980.06;4956442;29;937;-79
2023/08/26 09:12:09;;;;;;;;;;;;;;;22.11;29.62;97974.34;4957901;29;1036;-78
2023/08/26 09:14:35;;;;;;;;;;;;;;;21.96;30.00;97970.31;4956684;29;954;-79
2023/08/26 09:17:19;;;;;;;;;;;;;;;22.06;29.88;97977.69;4957856;29;951;-79
2023/08/26 09:19:58;;;;;;;;;;;;;;;22.41;29.34;97978.72;4956457;29;889;-78
2023/08/26 09:22:27;;;;;;;;;;;;;;;22.32;29.09;97970.88;4956635;29;963;-78
2023/08/26 09:24:53;;;;;;;;;;;;;;;22.09;29.82;97976.81;4937982;29;971;-78
2023/08/26 09:27:18;;;;;;;;;;;;;;;22.12;29.80;97981.59;4939865;29;1894;-78
2023/08/26 09:29:44;;;;;;;;;;;;;;;22.07;29.68;97965.94;4940099;29;930;-79
2023/08/26 09:32:09;;;;;;;;;;;;;;;22.07;29.77;97965.94;4920982;29;928;-78
2023/08/26 09:34:36;;;;;;;;;;;;;;;22.12;29.83;97967.44;4920811;29;1008;-79
2023/08/26 09:37:01;;;;;;;;;;;;;;;22.08;29.97;97969.56;4889618;29;963;-79
2023/08/26 09:39:27;;;;;;;;;;;;;;;22.12;29.61;97970.25;4921105;29;978;-79
2023/08/26 09:41:56;;;;;;;;;;;;;;;22.28;29.65;97967.38;4921065;29;1027;-78
2023/08/26 09:44:23;;;;;;;;;;;;;;;22.42;29.09;97966.13;4921152;29;1038;-78
2023/08/26 09:46:48;;;;;;;;;;;;;;;22.44;29.20;97969.34;4920894;29;1234;-78
2023/08/26 09:49:14;;;;;;;;;;;;;;;22.23;29.44;97970.78;4920866;29;1906;-78
2023/08/26 09:51:46;;;;;;;;;;;;;;;22.21;29.52;97966.78;4920903;29;861;-78
2023/08/26 09:54:14;;;;;;;;;;;;;;;22.24;29.47;97965.88;4918750;29;996;-78
2023/08/26 09:56:39;;;;;;;;;;;;;;;22.42;29.18;97965.34;4947871;29;1460;-79
2023/08/26 09:59:05;;;;;;;;;;;;;;;22.27;29.71;97960.09;4942390;29;1455;-79
2023/08/26 10:01:31;;;;;;;;;;;;;;;22.16;29.60;97956.78;4939295;29;934;-79
2023/08/26 10:04:08;;;;;;;;;;;;;;;22.52;29.16;97952.88;4900722;29;938;-78
2023/08/26 10:06:39;;;;;;;;;;;;;;;22.45;29.07;97958.78;4900647;29;989;-78
2023/08/26 10:09:28;;;;;;;;;;;;;;;22.23;29.57;97950.94;4915840;29;2000;-78
2023/08/26 10:11:54;;;;;;;;;;;;;;;22.41;29.43;97950.38;4863495;29;1221;-78
2023/08/26 10:14:20;;;;;;;;;;;;;;;22.46;29.20;97955.47;4848584;29;977;-78
2023/08/26 10:16:45;;;;;;;;;;;;;;;22.38;29.32;97950.47;4839107;29;2102;-78
2023/08/26 10:19:11;;;;;;;;;;;;;;;22.21;29.75;97956.22;4830218;29;915;-78
2023/08/26 10:21:36;;;;;;;;;;;;;;;21.90;30.05;97946.59;4848253;29;1585;-78
2023/08/26 10:24:02;;;;;;;;;;;;;;;22.04;30.00;97951.88;4847958;29;925;-79
2023/08/26 10:26:28;;;;;;;;;;;;;;;22.31;29.66;97949.44;4864003;29;967;-79
2023/08/26 10:28:55;;;;;;;;;;;;;;;22.39;29.52;97947.22;4826615;29;2030;-78
2023/08/26 10:31:20;;;;;;;;;;;;;;;22.17;29.80;97955.53;4812075;29;1024;-79
2023/08/26 10:34:04;;;;;;;;;;;;;;;22.17;29.61;97954.75;4826954;29;1043;-78
2023/08/26 10:36:33;;;;;;;;;;;;;;;21.85;30.32;97945.91;4844610;29;1254;-78
2023/08/26 10:38:59;;;;;;;;;;;;;;;22.02;30.03;97954.34;4845316;29;1251;-78
2023/08/26 10:41:25;;;;;;;;;;;;;;;22.25;29.57;97951.25;4844995;29;1023;-78
2023/08/26 10:43:54;;;;;;;;;;;;;;;22.18;29.86;97945.81;4844826;29;944;-78
2023/08/26 10:46:49;;;;;;;;;;;;;;;22.51;29.26;97956.97;4845316;29;1397;-78
2023/08/26 10:49:15;;;;;;;;;;;;;;;22.45;29.34;97951.06;4850067;29;1911;-79
2023/08/26 10:51:43;;;;;;;;;;;;;;;22.44;29.36;97945.84;4863660;29;1046;-79
2023/08/26 10:54:09;;;;;;;;;;;;;;;22.13;29.95;97956.91;4863693;29;1031;-78
2023/08/26 10:56:34;;;;;;;;;;;;;;;22.07;30.00;97959.44;4863273;29;1005;-78
2023/08/26 10:59:00;;;;;;;;;;;;;;;22.23;29.79;97947.31;4868457;29;928;-79
2023/08/26 11:01:26;;;;;;;;;;;;;;;22.35;29.36;97949.34;4900508;29;869;-78
2023/08/26 11:03:51;;;;;;;;;;;;;;;22.33;29.32;97949.81;4900812;29;957;-78
2023/08/26 11:06:22;;;;;;;;;;;;;;;22.31;29.60;97954.31;4900907;29;1006;-78
2023/08/26 11:08:53;;;;;;;;;;;;;;;22.33;29.41;97946.97;4884830;29;1911;-78
2023/08/26 11:11:19;;;;;;;;;;;;;;;22.09;29.94;97945.66;4885026;29;1042;-78
2023/08/26 11:13:45;;;;;;;;;;;;;;;22.16;29.71;97948.28;4900601;29;944;-79
2023/08/26 11:16:12;;;;;;;;;;;;;;;22.23;29.75;97948.09;4884741;29;973;-78
2023/08/26 11:18:37;;;;;;;;;;;;;;;22.43;29.24;97949.91;4884559;29;1028;-78
2023/08/26 11:21:07;;;;;;;;;;;;;;;22.29;29.66;97946.28;4900677;29;920;-79
2023/08/26 11:23:32;;;;;;;;;;;;;;;22.39;29.59;97949.25;4884615;29;978;-78
2023/08/26 11:25:58;;;;;;;;;;;;;;;22.33;29.35;97944.16;4906642;29;1007;-79
2023/08/26 11:28:25;;;;;;;;;;;;;;;22.49;29.21;97948.91;4918832;29;1960;-78
2023/08/26 11:30:50;;;;;;;;;;;;;;;22.60;29.18;97954.25;4903309;29;987;-79
2023/08/26 11:33:16;;;;;;;;;;;;;;;22.17;29.80;97949.88;4887551;29;1011;-78
2023/08/26 11:35:45;;;;;;;;;;;;;;;22.27;29.75;97945.13;4887971;29;993;-78
2023/08/26 11:38:11;;;;;;;;;;;;;;;22.22;29.83;97940.81;4899795;29;1296;-79
2023/08/26 11:40:36;;;;;;;;;;;;;;;22.28;29.64;97943.91;4900091;29;1116;-79
2023/08/26 11:43:06;;;;;;;;;;;;;;;22.18;29.87;97942.97;4899714;29;1005;-78
2023/08/26 11:45:31;;;;;;;;;;;;;;;22.25;29.74;97927.78;4899935;29;1204;-78
2023/08/26 11:47:57;;;;;;;;;;;;;;;22.17;29.90;97938.53;4899043;29;1903;-78
2023/08/26 11:50:22;;;;;;;;;;;;;;;22.26;29.64;97935.03;4899565;29;1005;-79
2023/08/26 11:52:48;;;;;;;;;;;;;;;22.05;29.79;97939.28;4899906;29;976;-78
2023/08/26 11:55:13;;;;;;;;;;;;;;;22.41;29.38;97935.41;4899694;29;1116;-78
2023/08/26 11:57:39;;;;;;;;;;;;;;;22.33;29.52;97940.53;4899913;29;1008;-78
2023/08/26 12:00:07;;;;;;;;;;;;;;;22.08;29.85;97929.91;4914845;29;993;-79
2023/08/26 12:02:38;;;;;;;;;;;;;;;22.27;29.36;97947.97;4918727;29;1011;-78
2023/08/26 12:05:03;;;;;;;;;;;;;;;22.32;29.48;97938.91;4918268;29;1043;-78
2023/08/26 12:07:29;;;;;;;;;;;;;;;22.27;29.54;97937.41;4918443;29;1906;-79
2023/08/26 12:09:57;;;;;;;;;;;;;;;22.35;29.37;97944.47;4918273;29;899;-77
2023/08/26 12:12:23;;;;;;;;;;;;;;;22.40;29.23;97931.00;4917654;29;1057;-78
2023/08/26 12:14:49;;;;;;;;;;;;;;;22.29;29.25;97934.94;4905956;29;1003;-79
2023/08/26 12:17:14;;;;;;;;;;;;;;;22.24;29.56;97935.50;4938827;29;1058;-79
2023/08/26 12:19:43;;;;;;;;;;;;;;;22.30;29.62;97933.69;4939772;29;915;-78
2023/08/26 12:22:09;;;;;;;;;;;;;;;22.48;29.16;97929.50;4939355;29;1119;-78
2023/08/26 12:24:37;;;;;;;;;;;;;;;22.31;29.37;97940.94;4922419;29;1289;-79
2023/08/26 12:27:09;;;;;;;;;;;;;;;22.40;29.25;97934.63;4938124;29;962;-78
2023/08/26 12:29:35;;;;;;;;;;;;;;;22.31;29.45;97929.59;4922480;29;1964;-78
2023/08/26 12:32:01;;;;;;;;;;;;;;;22.21;29.50;97930.72;4938170;29;1050;-78
2023/08/26 12:34:26;;;;;;;;;;;;;;;22.30;29.33;97928.03;4922301;29;1130;-78
2023/08/26 12:36:52;;;;;;;;;;;;;;;22.21;29.37;97927.09;4938950;29;918;-78
2023/08/26 12:39:17;;;;;;;;;;;;;;;22.21;29.57;97925.06;4937705;29;1436;-78
2023/08/26 12:41:43;;;;;;;;;;;;;;;22.24;29.49;97914.88;4937981;29;962;-78
2023/08/26 12:44:08;;;;;;;;;;;;;;;22.00;30.05;97920.78;4937905;29;1112;-78
2023/08/26 12:46:34;;;;;;;;;;;;;;;22.16;29.41;97908.63;4940707;29;1190;-78
2023/08/26 12:49:03;;;;;;;;;;;;;;;22.39;29.42;97912.41;4924859;29;1907;-79
2023/08/26 12:51:28;;;;;;;;;;;;;;;22.33;29.31;97915.78;4941111;29;1069;-78
2023/08/26 12:53:54;;;;;;;;;;;;;;;22.29;29.27;97915.09;4958083;29;844;-79
2023/08/26 12:56:20;;;;;;;;;;;;;;;22.25;29.67;97907.97;4941464;29;931;-78